EGAA/BFS METAR and TAF weather

Enter ICAO airport designator
Station Type Date Time Source
EGAA METAR 2019/10/18 05:50 UTC NOAA

EGAA 180550Z 06005KT CAVOK 03/02 Q0992


Station Type Date Time Source
EGAA Decoded METAR 2019/10/18 05:50 UTC NOAA

Belfast / Aldergrove Airport, United Kingdom (EGAA) 54-39N 006-13W 0M
Oct 18, 2019 - 01:50 AM EDT / 2019.10.18 0550 UTC
Wind: from the ENE (060 degrees) at 6 MPH (5 KT):0
Visibility: greater than 7 mile(s):0
Temperature: 37 F (3 C)
Dew Point: 35 F (2 C)
Relative Humidity: 93%
Pressure (altimeter): 29.29 in. Hg (0992 hPa)
ob: EGAA 180550Z 06005KT CAVOK 03/02 Q0992
cycle: 6

Station Type Date Time Source
EGAA TAF 2019/10/18 06:09 UTC NOAA

TAF TAF EGAA 180500Z 1806/1906 VRB04KT 9999 SCT035
TEMPO 1811/1818 7000 SHRA PROB30
TEMPO 1812/1818 4000 +SHRA
TEMPO 1823/1906 7000 SHRA FEW007 BKN012

Example: see airport list